Terminal Aerodrome Forecast
Issued by NWS Springfield, MO

Home | Current Version | Previous Version | Text Only | Print | Product List | Glossary On
Versions: 1 2 3 4 5 6 7 8 9 10 11 12 13 14 15 16 17 18 19 20 21 22 23
000
FTUS43 KSGF 240800 AAA
TAFSGF
TAF AMD
KSGF 240839Z 2409/2506 15016G24KT P6SM VCSH SCT050 OVC100
      WS020/18040KT
      TEMPO 2410/2412 4SM -TSRA BR SCT015 OVC030CB
     FM241200 16014KT 4SM -RA BR VCTS OVC015CB
     FM241800 16014G22KT 6SM -SHRA BR VCTS OVC025CB
      TEMPO 2423/2503 4SM -TSRA OVC020CB=

USA.gov is the U.S. government's official web portal to all federal, state and local government web resources and services.